sensor_id;sensor_type;location;lat;lon;timestamp;pressure;altitude;pressure_sealevel;temperature;humidity
35892;BME280;21993;42.672;23.296;2022-11-30T00:02:22;94856.81;;;7.06;78.99
35892;BME280;21993;42.672;23.296;2022-11-30T00:04:47;94860.88;;;7.10;77.83
35892;BME280;21993;42.672;23.296;2022-11-30T00:07:12;94859.44;;;7.06;77.72
35892;BME280;21993;42.672;23.296;2022-11-30T00:09:38;94864.03;;;7.02;78.23
35892;BME280;21993;42.672;23.296;2022-11-30T00:12:03;94860.09;;;6.97;78.17
35892;BME280;21993;42.672;23.296;2022-11-30T00:14:29;94875.75;;;6.97;78.87
35892;BME280;21993;42.672;23.296;2022-11-30T00:16:54;94874.59;;;7.01;78.37
35892;BME280;21993;42.672;23.296;2022-11-30T00:19:20;94871.75;;;7.04;78.79
35892;BME280;21993;42.672;23.296;2022-11-30T00:21:45;94870.72;;;7.07;78.77
35892;BME280;21993;42.672;23.296;2022-11-30T00:24:10;94868.84;;;7.09;78.09
35892;BME280;21993;42.672;23.296;2022-11-30T00:26:36;94874.19;;;6.94;77.77
35892;BME280;21993;42.672;23.296;2022-11-30T00:29:01;94878.41;;;6.84;78.29
35892;BME280;21993;42.672;23.296;2022-11-30T00:31:27;94876.09;;;6.92;79.37
35892;BME280;21993;42.672;23.296;2022-11-30T00:33:52;94873.91;;;6.86;79.49
35892;BME280;21993;42.672;23.296;2022-11-30T00:36:19;94871.47;;;6.96;79.94
35892;BME280;21993;42.672;23.296;2022-11-30T00:38:46;94872.53;;;6.93;78.93
35892;BME280;21993;42.672;23.296;2022-11-30T00:41:13;94868.44;;;7.02;78.59
35892;BME280;21993;42.672;23.296;2022-11-30T00:43:39;94866.78;;;7.01;78.79
35892;BME280;21993;42.672;23.296;2022-11-30T00:46:04;94868.66;;;6.99;78.98
35892;BME280;21993;42.672;23.296;2022-11-30T00:48:30;94869.31;;;6.90;78.89
35892;BME280;21993;42.672;23.296;2022-11-30T00:50:56;94863.25;;;6.89;79.60
35892;BME280;21993;42.672;23.296;2022-11-30T00:53:21;94867.25;;;6.82;79.64
35892;BME280;21993;42.672;23.296;2022-11-30T00:55:48;94866.81;;;6.88;80.04
35892;BME280;21993;42.672;23.296;2022-11-30T00:58:14;94864.41;;;6.85;79.73
35892;BME280;21993;42.672;23.296;2022-11-30T01:00:39;94867.47;;;6.79;80.16
35892;BME280;21993;42.672;23.296;2022-11-30T01:03:05;94867.47;;;6.79;80.14
35892;BME280;21993;42.672;23.296;2022-11-30T01:05:34;94858.63;;;6.69;80.53
35892;BME280;21993;42.672;23.296;2022-11-30T01:08:02;94863.41;;;6.75;79.71
35892;BME280;21993;42.672;23.296;2022-11-30T01:10:28;94862.28;;;6.66;80.08
35892;BME280;21993;42.672;23.296;2022-11-30T01:12:53;94858.63;;;6.69;79.62
35892;BME280;21993;42.672;23.296;2022-11-30T01:15:19;94859.69;;;6.66;80.18
35892;BME280;21993;42.672;23.296;2022-11-30T01:17:45;94862.34;;;6.77;80.06
35892;BME280;21993;42.672;23.296;2022-11-30T01:20:10;94864.25;;;6.75;79.59
35892;BME280;21993;42.672;23.296;2022-11-30T01:22:36;94860.91;;;6.73;79.80
35892;BME280;21993;42.672;23.296;2022-11-30T01:25:02;94856.72;;;6.71;80.04
35892;BME280;21993;42.672;23.296;2022-11-30T01:27:28;94855.72;;;6.73;79.77
35892;BME280;21993;42.672;23.296;2022-11-30T01:29:53;94856.91;;;6.81;79.84
35892;BME280;21993;42.672;23.296;2022-11-30T01:32:18;94860.81;;;6.75;79.88
35892;BME280;21993;42.672;23.296;2022-11-30T01:34:44;94851.03;;;6.66;79.87
35892;BME280;21993;42.672;23.296;2022-11-30T01:37:09;94849.69;;;6.60;79.96
35892;BME280;21993;42.672;23.296;2022-11-30T01:39:35;94860.88;;;6.49;80.81
35892;BME280;21993;42.672;23.296;2022-11-30T01:42:00;94856.44;;;6.63;80.69
35892;BME280;21993;42.672;23.296;2022-11-30T01:47:09;94857.38;;;6.62;80.40
35892;BME280;21993;42.672;23.296;2022-11-30T01:49:45;94854.75;;;6.74;80.03
35892;BME280;21993;42.672;23.296;2022-11-30T01:52:12;94854.38;;;6.55;80.28
35892;BME280;21993;42.672;23.296;2022-11-30T01:55:02;94855.84;;;6.59;80.19
35892;BME280;21993;42.672;23.296;2022-11-30T01:57:37;94849.97;;;6.56;80.30
35892;BME280;21993;42.672;23.296;2022-11-30T02:00:06;94855.31;;;6.54;80.60
35892;BME280;21993;42.672;23.296;2022-11-30T02:05:15;94839.53;;;6.68;79.22
35892;BME280;21993;42.672;23.296;2022-11-30T02:07:41;94850.69;;;6.70;80.20
35892;BME280;21993;42.672;23.296;2022-11-30T02:10:13;94845.63;;;6.56;79.95
35892;BME280;21993;42.672;23.296;2022-11-30T02:18:22;94828.63;;;6.51;80.49
35892;BME280;21993;42.672;23.296;2022-11-30T02:21:01;94837.72;;;6.45;80.63
35892;BME280;21993;42.672;23.296;2022-11-30T02:26:27;94829.22;;;6.17;81.59
35892;BME280;21993;42.672;23.296;2022-11-30T02:29:21;94830.13;;;6.29;81.47
35892;BME280;21993;42.672;23.296;2022-11-30T02:32:31;94831.47;;;6.35;81.60
35892;BME280;21993;42.672;23.296;2022-11-30T02:35:00;94827.78;;;6.01;81.72
35892;BME280;21993;42.672;23.296;2022-11-30T02:37:27;94823.81;;;5.95;82.93
35892;BME280;21993;42.672;23.296;2022-11-30T02:39:54;94822.97;;;5.82;82.99
35892;BME280;21993;42.672;23.296;2022-11-30T02:42:20;94828.56;;;5.88;82.62
35892;BME280;21993;42.672;23.296;2022-11-30T02:44:50;94822.97;;;5.82;83.02
35892;BME280;21993;42.672;23.296;2022-11-30T02:47:30;94817.47;;;5.99;82.19
35892;BME280;21993;42.672;23.296;2022-11-30T02:52:32;94818.81;;;5.92;82.89
35892;BME280;21993;42.672;23.296;2022-11-30T02:55:03;94822.00;;;5.83;82.39
35892;BME280;21993;42.672;23.296;2022-11-30T02:57:30;94824.50;;;5.84;82.97
35892;BME280;21993;42.672;23.296;2022-11-30T02:59:56;94822.63;;;5.86;82.93
35892;BME280;21993;42.672;23.296;2022-11-30T03:02:22;94826.59;;;5.79;83.17
35892;BME280;21993;42.672;23.296;2022-11-30T03:04:48;94816.91;;;5.81;83.11
35892;BME280;21993;42.672;23.296;2022-11-30T03:07:13;94826.28;;;5.97;82.49
35892;BME280;21993;42.672;23.296;2022-11-30T03:09:39;94824.97;;;5.91;82.72
35892;BME280;21993;42.672;23.296;2022-11-30T03:12:04;94822.97;;;5.95;82.76
35892;BME280;21993;42.672;23.296;2022-11-30T03:14:30;94823.03;;;5.68;83.08
35892;BME280;21993;42.672;23.296;2022-11-30T03:16:55;94827.03;;;5.73;83.77
35892;BME280;21993;42.672;23.296;2022-11-30T03:19:20;94823.06;;;5.80;83.68
35892;BME280;21993;42.672;23.296;2022-11-30T03:21:46;94822.25;;;5.92;83.17
35892;BME280;21993;42.672;23.296;2022-11-30T03:24:11;94829.81;;;5.83;83.30
35892;BME280;21993;42.672;23.296;2022-11-30T03:26:37;94823.28;;;5.90;82.83
35892;BME280;21993;42.672;23.296;2022-11-30T03:29:02;94826.94;;;6.00;82.54
35892;BME280;21993;42.672;23.296;2022-11-30T03:31:28;94821.69;;;5.87;83.06
35892;BME280;21993;42.672;23.296;2022-11-30T03:33:53;94825.34;;;5.85;83.40
35892;BME280;21993;42.672;23.296;2022-11-30T03:36:19;94823.69;;;5.84;83.53
35892;BME280;21993;42.672;23.296;2022-11-30T03:38:44;94830.31;;;5.62;84.49
35892;BME280;21993;42.672;23.296;2022-11-30T03:41:13;94821.38;;;5.67;84.70
35892;BME280;21993;42.672;23.296;2022-11-30T03:43:41;94831.50;;;5.84;83.82
35892;BME280;21993;42.672;23.296;2022-11-30T03:46:06;94827.53;;;5.78;84.27
35892;BME280;21993;42.672;23.296;2022-11-30T03:48:32;94833.03;;;5.86;84.34
35892;BME280;21993;42.672;23.296;2022-11-30T03:50:57;94840.34;;;5.81;83.74
35892;BME280;21993;42.672;23.296;2022-11-30T03:53:24;94840.03;;;5.73;84.28
35892;BME280;21993;42.672;23.296;2022-11-30T03:55:53;94844.63;;;5.82;84.19
35892;BME280;21993;42.672;23.296;2022-11-30T03:58:20;94841.06;;;5.58;84.82
35892;BME280;21993;42.672;23.296;2022-11-30T04:00:45;94834.28;;;5.68;84.96
35892;BME280;21993;42.672;23.296;2022-11-30T04:03:11;94825.88;;;5.64;85.21
35892;BME280;21993;42.672;23.296;2022-11-30T04:05:37;94832.94;;;5.50;85.49
35892;BME280;21993;42.672;23.296;2022-11-30T04:08:02;94838.56;;;5.56;85.82
35892;BME280;21993;42.672;23.296;2022-11-30T04:10:28;94828.97;;;5.57;85.47
35892;BME280;21993;42.672;23.296;2022-11-30T04:12:53;94833.56;;;5.66;85.70
35892;BME280;21993;42.672;23.296;2022-11-30T04:15:18;94833.25;;;5.58;85.28
35892;BME280;21993;42.672;23.296;2022-11-30T04:17:44;94840.22;;;5.70;85.17
35892;BME280;21993;42.672;23.296;2022-11-30T04:20:09;94837.09;;;5.52;85.07
35892;BME280;21993;42.672;23.296;2022-11-30T04:22:35;94852.88;;;5.24;86.28
35892;BME280;21993;42.672;23.296;2022-11-30T04:25:01;94841.63;;;5.23;87.68
35892;BME280;21993;42.672;23.296;2022-11-30T04:27:27;94850.44;;;5.48;87.10
35892;BME280;21993;42.672;23.296;2022-11-30T04:29:53;94851.25;;;5.61;86.59
35892;BME280;21993;42.672;23.296;2022-11-30T04:32:19;94847.09;;;5.71;85.56
35892;BME280;21993;42.672;23.296;2022-11-30T04:34:44;94858.59;;;5.81;85.50
35892;BME280;21993;42.672;23.296;2022-11-30T04:37:09;94851.59;;;5.82;84.93
35892;BME280;21993;42.672;23.296;2022-11-30T04:39:35;94840.44;;;5.80;84.72
35892;BME280;21993;42.672;23.296;2022-11-30T04:42:00;94846.50;;;5.80;84.91
35892;BME280;21993;42.672;23.296;2022-11-30T04:44:26;94851.47;;;5.71;85.19
35892;BME280;21993;42.672;23.296;2022-11-30T04:46:51;94848.19;;;5.81;84.77
35892;BME280;21993;42.672;23.296;2022-11-30T04:49:16;94854.41;;;5.79;84.24
35892;BME280;21993;42.672;23.296;2022-11-30T04:51:42;94856.16;;;5.53;85.06
35892;BME280;21993;42.672;23.296;2022-11-30T04:54:07;94849.28;;;5.52;85.19
35892;BME280;21993;42.672;23.296;2022-11-30T04:56:33;94850.53;;;5.59;86.14
35892;BME280;21993;42.672;23.296;2022-11-30T04:59:00;94854.19;;;5.69;85.40
35892;BME280;21993;42.672;23.296;2022-11-30T05:01:25;94848.13;;;5.43;85.68
35892;BME280;21993;42.672;23.296;2022-11-30T05:03:51;94855.47;;;5.36;86.44
35892;BME280;21993;42.672;23.296;2022-11-30T05:06:16;94848.16;;;5.56;86.28
35892;BME280;21993;42.672;23.296;2022-11-30T05:08:42;94849.38;;;5.50;85.92
35892;BME280;21993;42.672;23.296;2022-11-30T05:11:07;94848.16;;;5.56;85.62
35892;BME280;21993;42.672;23.296;2022-11-30T05:13:33;94849.91;;;5.68;85.56
35892;BME280;21993;42.672;23.296;2022-11-30T05:15:58;94857.91;;;5.40;86.69
35892;BME280;21993;42.672;23.296;2022-11-30T05:18:23;94853.66;;;5.51;86.57
35892;BME280;21993;42.672;23.296;2022-11-30T05:20:51;94861.66;;;5.48;86.06
35892;BME280;21993;42.672;23.296;2022-11-30T05:23:18;94871.59;;;5.56;86.74
35892;BME280;21993;42.672;23.296;2022-11-30T05:25:44;94867.38;;;5.53;86.66
35892;BME280;21993;42.672;23.296;2022-11-30T05:28:09;94866.38;;;5.56;86.43
35892;BME280;21993;42.672;23.296;2022-11-30T05:30:37;94860.00;;;5.47;86.30
35892;BME280;21993;42.672;23.296;2022-11-30T05:33:02;94860.34;;;5.55;86.41
35892;BME280;21993;42.672;23.296;2022-11-30T05:35:28;94861.75;;;5.34;86.50
35892;BME280;21993;42.672;23.296;2022-11-30T05:37:53;94864.06;;;5.39;86.36
35892;BME280;21993;42.672;23.296;2022-11-30T05:40:18;94867.38;;;5.41;86.75
35892;BME280;21993;42.672;23.296;2022-11-30T05:42:44;94864.56;;;5.44;86.18
35892;BME280;21993;42.672;23.296;2022-11-30T05:45:09;94874.88;;;5.45;86.21
35892;BME280;21993;42.672;23.296;2022-11-30T05:47:35;94877.69;;;5.55;85.16
35892;BME280;21993;42.672;23.296;2022-11-30T05:50:00;94875.97;;;5.55;85.77
35892;BME280;21993;42.672;23.296;2022-11-30T05:52:26;94875.38;;;5.37;85.58
35892;BME280;21993;42.672;23.296;2022-11-30T05:54:51;94865.63;;;5.54;85.56
35892;BME280;21993;42.672;23.296;2022-11-30T05:57:16;94873.94;;;5.46;85.51
35892;BME280;21993;42.672;23.296;2022-11-30T05:59:42;94875.41;;;5.50;85.63
35892;BME280;21993;42.672;23.296;2022-11-30T06:02:07;94881.56;;;5.62;85.13
35892;BME280;21993;42.672;23.296;2022-11-30T06:04:33;94882.41;;;5.62;85.32
35892;BME280;21993;42.672;23.296;2022-11-30T06:06:58;94882.00;;;5.56;85.07
35892;BME280;21993;42.672;23.296;2022-11-30T06:09:23;94886.56;;;5.52;85.28
35892;BME280;21993;42.672;23.296;2022-11-30T06:11:49;94884.69;;;5.54;84.89
35892;BME280;21993;42.672;23.296;2022-11-30T06:14:15;94897.34;;;5.33;86.08
35892;BME280;21993;42.672;23.296;2022-11-30T06:16:40;94899.69;;;5.51;85.67
35892;BME280;21993;42.672;23.296;2022-11-30T06:19:05;94901.56;;;5.49;84.91
35892;BME280;21993;42.672;23.296;2022-11-30T06:21:31;94908.31;;;5.51;85.42
35892;BME280;21993;42.672;23.296;2022-11-30T06:23:56;94903.94;;;5.39;85.31
35892;BME280;21993;42.672;23.296;2022-11-30T06:26:22;94902.66;;;5.45;84.93
35892;BME280;21993;42.672;23.296;2022-11-30T06:28:47;94895.19;;;5.53;85.00
35892;BME280;21993;42.672;23.296;2022-11-30T06:31:13;94892.72;;;5.24;85.76
35892;BME280;21993;42.672;23.296;2022-11-30T06:33:38;94894.53;;;5.36;85.70
35892;BME280;21993;42.672;23.296;2022-11-30T06:36:04;94905.75;;;5.24;85.14
35892;BME280;21993;42.672;23.296;2022-11-30T06:38:30;94901.72;;;5.33;85.31
35892;BME280;21993;42.672;23.296;2022-11-30T06:41:02;94899.31;;;5.30;85.41
35892;BME280;21993;42.672;23.296;2022-11-30T06:43:32;94913.91;;;5.45;84.95
35892;BME280;21993;42.672;23.296;2022-11-30T06:45:57;94915.78;;;5.43;84.13
35892;BME280;21993;42.672;23.296;2022-11-30T06:48:23;94914.03;;;5.44;84.03
35892;BME280;21993;42.672;23.296;2022-11-30T06:50:48;94919.53;;;5.39;83.91
35892;BME280;21993;42.672;23.296;2022-11-30T06:53:14;94913.53;;;5.51;84.37
35892;BME280;21993;42.672;23.296;2022-11-30T06:55:39;94904.66;;;5.54;83.51
35892;BME280;21993;42.672;23.296;2022-11-30T06:58:09;94900.94;;;5.58;83.32
35892;BME280;21993;42.672;23.296;2022-11-30T07:00:35;94905.94;;;5.61;83.99
35892;BME280;21993;42.672;23.296;2022-11-30T07:03:01;94908.22;;;5.53;84.21
35892;BME280;21993;42.672;23.296;2022-11-30T07:05:27;94896.84;;;5.54;83.81
35892;BME280;21993;42.672;23.296;2022-11-30T07:07:53;94899.69;;;5.51;84.75
35892;BME280;21993;42.672;23.296;2022-11-30T07:10:18;94901.06;;;5.56;84.21
35892;BME280;21993;42.672;23.296;2022-11-30T07:12:43;94909.72;;;5.70;84.04
35892;BME280;21993;42.672;23.296;2022-11-30T07:15:10;94905.66;;;5.65;84.20
35892;BME280;21993;42.672;23.296;2022-11-30T07:17:35;94903.69;;;5.82;84.33
35892;BME280;21993;42.672;23.296;2022-11-30T07:20:00;94907.84;;;5.72;83.89
35892;BME280;21993;42.672;23.296;2022-11-30T07:22:26;94910.34;;;5.73;83.46
35892;BME280;21993;42.672;23.296;2022-11-30T07:24:51;94921.50;;;5.75;83.19
35892;BME280;21993;42.672;23.296;2022-11-30T07:27:35;94921.13;;;5.94;82.55
35892;BME280;21993;42.672;23.296;2022-11-30T07:30:00;94914.53;;;5.76;83.29
35892;BME280;21993;42.672;23.296;2022-11-30T07:32:26;94919.72;;;5.88;82.93
35892;BME280;21993;42.672;23.296;2022-11-30T07:34:51;94922.56;;;5.85;82.68
35892;BME280;21993;42.672;23.296;2022-11-30T07:37:17;94915.81;;;5.96;82.71
35892;BME280;21993;42.672;23.296;2022-11-30T07:39:42;94909.88;;;5.93;81.93
35892;BME280;21993;42.672;23.296;2022-11-30T07:42:07;94908.13;;;6.19;81.57
35892;BME280;21993;42.672;23.296;2022-11-30T07:44:33;94902.91;;;6.19;81.18
35892;BME280;21993;42.672;23.296;2022-11-30T07:47:00;94911.34;;;6.10;81.36
35892;BME280;21993;42.672;23.296;2022-11-30T07:49:25;94902.50;;;6.00;81.46
35892;BME280;21993;42.672;23.296;2022-11-30T07:51:50;94919.22;;;5.83;82.16
35892;BME280;21993;42.672;23.296;2022-11-30T07:54:16;94909.59;;;5.71;82.05
35892;BME280;21993;42.672;23.296;2022-11-30T07:56:41;94902.94;;;5.80;82.04
35892;BME280;21993;42.672;23.296;2022-11-30T07:59:08;94911.16;;;5.61;81.94
35892;BME280;21993;42.672;23.296;2022-11-30T08:01:34;94910.09;;;5.51;82.24
35892;BME280;21993;42.672;23.296;2022-11-30T08:04:00;94910.63;;;5.56;82.66
35892;BME280;21993;42.672;23.296;2022-11-30T08:06:28;94908.63;;;5.47;83.15
35892;BME280;21993;42.672;23.296;2022-11-30T08:08:56;94899.38;;;5.55;83.26
35892;BME280;21993;42.672;23.296;2022-11-30T08:11:27;94910.34;;;5.73;83.50
35892;BME280;21993;42.672;23.296;2022-11-30T08:13:53;94908.97;;;5.68;83.08
35892;BME280;21993;42.672;23.296;2022-11-30T08:16:21;94906.41;;;5.80;82.83
35892;BME280;21993;42.672;23.296;2022-11-30T08:18:47;94913.47;;;5.78;82.76
35892;BME280;21993;42.672;23.296;2022-11-30T08:21:15;94907.13;;;5.82;82.72
35892;BME280;21993;42.672;23.296;2022-11-30T08:23:43;94902.38;;;5.89;82.44
35892;BME280;21993;42.672;23.296;2022-11-30T08:28:34;94910.59;;;5.96;81.34
35892;BME280;21993;42.672;23.296;2022-11-30T08:31:06;94907.16;;;5.95;81.55
35892;BME280;21993;42.672;23.296;2022-11-30T08:33:33;94908.41;;;5.89;81.52
35892;BME280;21993;42.672;23.296;2022-11-30T08:36:10;94913.31;;;5.94;82.22
35892;BME280;21993;42.672;23.296;2022-11-30T08:38:36;94905.94;;;6.01;81.50
35892;BME280;21993;42.672;23.296;2022-11-30T08:41:03;94926.56;;;5.91;81.23
35892;BME280;21993;42.672;23.296;2022-11-30T08:43:29;94912.53;;;5.79;81.13
35892;BME280;21993;42.672;23.296;2022-11-30T08:45:55;94913.78;;;5.74;81.12
35892;BME280;21993;42.672;23.296;2022-11-30T08:48:20;94911.09;;;5.75;81.36
35892;BME280;21993;42.672;23.296;2022-11-30T08:50:45;94922.44;;;5.87;81.25
35892;BME280;21993;42.672;23.296;2022-11-30T08:53:11;94912.53;;;5.79;80.82
35892;BME280;21993;42.672;23.296;2022-11-30T08:55:36;94908.59;;;5.74;81.28
35892;BME280;21993;42.672;23.296;2022-11-30T08:58:02;94907.31;;;5.79;81.42
35892;BME280;21993;42.672;23.296;2022-11-30T09:00:27;94908.03;;;6.08;80.90
35892;BME280;21993;42.672;23.296;2022-11-30T09:02:52;94909.91;;;6.06;80.32
35892;BME280;21993;42.672;23.296;2022-11-30T09:05:18;94909.47;;;6.00;80.62
35892;BME280;21993;42.672;23.296;2022-11-30T09:07:43;94903.09;;;6.04;80.29
35892;BME280;21993;42.672;23.296;2022-11-30T09:10:09;94919.72;;;5.76;80.54
35892;BME280;21993;42.672;23.296;2022-11-30T09:12:36;94913.47;;;5.78;80.77
35892;BME280;21993;42.672;23.296;2022-11-30T09:15:03;94917.72;;;5.67;81.16
35892;BME280;21993;42.672;23.296;2022-11-30T09:17:28;94915.31;;;5.90;80.81
35892;BME280;21993;42.672;23.296;2022-11-30T09:19:54;94914.03;;;5.96;80.87
35892;BME280;21993;42.672;23.296;2022-11-30T09:22:20;94915.72;;;6.10;80.43
35892;BME280;21993;42.672;23.296;2022-11-30T09:24:45;94919.69;;;6.41;79.90
35892;BME280;21993;42.672;23.296;2022-11-30T09:27:10;94924.19;;;6.26;79.47
35892;BME280;21993;42.672;23.296;2022-11-30T09:29:36;94919.59;;;6.17;80.23
35892;BME280;21993;42.672;23.296;2022-11-30T09:32:01;94935.22;;;5.91;80.87
35892;BME280;21993;42.672;23.296;2022-11-30T09:34:26;94933.25;;;6.08;81.06
35892;BME280;21993;42.672;23.296;2022-11-30T09:36:52;94935.75;;;6.22;80.98
35892;BME280;21993;42.672;23.296;2022-11-30T09:39:17;94935.22;;;6.04;81.08
35892;BME280;21993;42.672;23.296;2022-11-30T09:49:40;94935.84;;;6.59;80.21
35892;BME280;21993;42.672;23.296;2022-11-30T09:52:40;94941.06;;;6.59;80.07
35892;BME280;21993;42.672;23.296;2022-11-30T09:55:08;94933.66;;;6.53;79.55
35892;BME280;21993;42.672;23.296;2022-11-30T09:57:54;94922.09;;;6.57;80.37
35892;BME280;21993;42.672;23.296;2022-11-30T10:00:22;94923.97;;;6.42;80.47
35892;BME280;21993;42.672;23.296;2022-11-30T10:02:49;94927.81;;;6.36;81.08
35892;BME280;21993;42.672;23.296;2022-11-30T10:18:55;94905.91;;;6.64;81.01
35892;BME280;21993;42.672;23.296;2022-11-30T10:26:35;94897.22;;;6.76;80.36
35892;BME280;21993;42.672;23.296;2022-11-30T10:29:17;94887.84;;;6.74;81.05
35892;BME280;21993;42.672;23.296;2022-11-30T10:31:45;94891.94;;;6.65;80.76
35892;BME280;21993;42.672;23.296;2022-11-30T10:34:17;94894.19;;;6.70;81.16
35892;BME280;21993;42.672;23.296;2022-11-30T10:36:49;94890.81;;;6.81;80.88
35892;BME280;21993;42.672;23.296;2022-11-30T10:45:16;94887.59;;;7.14;79.75
35892;BME280;21993;42.672;23.296;2022-11-30T10:48:02;94881.94;;;7.20;79.80
35892;BME280;21993;42.672;23.296;2022-11-30T10:50:32;94891.38;;;7.10;79.53
35892;BME280;21993;42.672;23.296;2022-11-30T10:52:59;94886.13;;;6.86;79.65
35892;BME280;21993;42.672;23.296;2022-11-30T10:55:28;94882.66;;;6.98;80.36
35892;BME280;21993;42.672;23.296;2022-11-30T10:57:58;94887.63;;;6.77;80.12
35892;BME280;21993;42.672;23.296;2022-11-30T11:00:26;94889.69;;;6.72;81.17
35892;BME280;21993;42.672;23.296;2022-11-30T11:02:52;94881.78;;;6.73;80.85
35892;BME280;21993;42.672;23.296;2022-11-30T11:10:42;94881.34;;;6.80;80.63
35892;BME280;21993;42.672;23.296;2022-11-30T11:13:16;94865.38;;;6.71;80.34
35892;BME280;21993;42.672;23.296;2022-11-30T11:15:58;94872.44;;;6.58;80.53
35892;BME280;21993;42.672;23.296;2022-11-30T11:18:26;94865.13;;;6.51;81.00
35892;BME280;21993;42.672;23.296;2022-11-30T11:25:56;94866.50;;;6.56;80.55
35892;BME280;21993;42.672;23.296;2022-11-30T11:28:22;94860.63;;;6.65;80.86
35892;BME280;21993;42.672;23.296;2022-11-30T11:30:52;94875.53;;;6.63;80.77
35892;BME280;21993;42.672;23.296;2022-11-30T11:33:26;94867.53;;;6.54;81.61
35892;BME280;21993;42.672;23.296;2022-11-30T11:36:13;94870.25;;;6.52;81.59
35892;BME280;21993;42.672;23.296;2022-11-30T11:38:43;94865.31;;;6.60;81.78
35892;BME280;21993;42.672;23.296;2022-11-30T11:46:22;94865.38;;;6.35;82.17
35892;BME280;21993;42.672;23.296;2022-11-30T11:48:56;94873.97;;;6.61;81.91
35892;BME280;21993;42.672;23.296;2022-11-30T11:51:36;94867.16;;;6.34;82.02
35892;BME280;21993;42.672;23.296;2022-11-30T11:56:42;94865.97;;;6.51;82.16
35892;BME280;21993;42.672;23.296;2022-11-30T12:04:55;94874.25;;;6.32;82.00
35892;BME280;21993;42.672;23.296;2022-11-30T12:10:35;94870.88;;;6.43;83.05
35892;BME280;21993;42.672;23.296;2022-11-30T12:13:12;94873.75;;;6.64;81.77
35892;BME280;21993;42.672;23.296;2022-11-30T12:15:47;94884.63;;;6.58;81.60
35892;BME280;21993;42.672;23.296;2022-11-30T12:18:20;94871.19;;;6.51;82.29
35892;BME280;21993;42.672;23.296;2022-11-30T12:23:45;94875.97;;;6.57;82.05
35892;BME280;21993;42.672;23.296;2022-11-30T12:28:58;94888.22;;;6.81;80.45
35892;BME280;21993;42.672;23.296;2022-11-30T12:31:39;94883.00;;;6.81;80.43
35892;BME280;21993;42.672;23.296;2022-11-30T12:42:19;94883.34;;;6.63;80.33
35892;BME280;21993;42.672;23.296;2022-11-30T12:45:04;94878.53;;;6.83;79.73
35892;BME280;21993;42.672;23.296;2022-11-30T12:50:24;94879.19;;;6.97;79.17
35892;BME280;21993;42.672;23.296;2022-11-30T12:58:38;94887.75;;;6.99;79.49
35892;BME280;21993;42.672;23.296;2022-11-30T13:03:55;94896.66;;;7.21;79.40
35892;BME280;21993;42.672;23.296;2022-11-30T13:06:41;94899.97;;;7.23;78.57
35892;BME280;21993;42.672;23.296;2022-11-30T13:09:29;94886.22;;;7.21;78.46
35892;BME280;21993;42.672;23.296;2022-11-30T13:12:05;94893.94;;;6.98;78.73
35892;BME280;21993;42.672;23.296;2022-11-30T13:14:32;94883.00;;;6.81;79.23
35892;BME280;21993;42.672;23.296;2022-11-30T13:17:04;94886.00;;;6.87;79.69
35892;BME280;21993;42.672;23.296;2022-11-30T13:20:03;94883.56;;;6.97;79.77
35892;BME280;21993;42.672;23.296;2022-11-30T13:25:17;94892.56;;;6.93;79.31
35892;BME280;21993;42.672;23.296;2022-11-30T13:27:51;94887.53;;;6.66;80.01
35892;BME280;21993;42.672;23.296;2022-11-30T13:32:48;94878.06;;;6.65;80.30
35892;BME280;21993;42.672;23.296;2022-11-30T13:38:01;94891.03;;;6.90;78.73
35892;BME280;21993;42.672;23.296;2022-11-30T13:40:27;94879.13;;;6.86;79.25
35892;BME280;21993;42.672;23.296;2022-11-30T13:42:53;94882.28;;;6.78;78.86
35892;BME280;21993;42.672;23.296;2022-11-30T13:45:33;94868.47;;;6.89;79.40
35892;BME280;21993;42.672;23.296;2022-11-30T13:48:16;94880.38;;;6.93;78.48
35892;BME280;21993;42.672;23.296;2022-11-30T13:50:46;94872.41;;;6.95;79.05
35892;BME280;21993;42.672;23.296;2022-11-30T13:53:29;94873.25;;;6.95;78.50
35892;BME280;21993;42.672;23.296;2022-11-30T14:01:48;94867.63;;;6.89;78.34
35892;BME280;21993;42.672;23.296;2022-11-30T14:09:12;94864.41;;;6.85;77.25
35892;BME280;21993;42.672;23.296;2022-11-30T14:11:42;94864.81;;;6.92;76.59
35892;BME280;21993;42.672;23.296;2022-11-30T14:14:40;94863.81;;;6.82;77.49
35892;BME280;21993;42.672;23.296;2022-11-30T14:17:22;94867.31;;;6.93;76.87
35892;BME280;21993;42.672;23.296;2022-11-30T14:19:54;94855.59;;;6.75;76.79
35892;BME280;21993;42.672;23.296;2022-11-30T14:22:21;94860.16;;;6.84;77.07
35892;BME280;21993;42.672;23.296;2022-11-30T14:24:48;94852.88;;;6.64;76.81
35892;BME280;21993;42.672;23.296;2022-11-30T14:27:17;94857.63;;;6.59;77.66
35892;BME280;21993;42.672;23.296;2022-11-30T14:29:47;94853.63;;;6.66;77.50
35892;BME280;21993;42.672;23.296;2022-11-30T14:32:29;94844.44;;;6.73;76.86
35892;BME280;21993;42.672;23.296;2022-11-30T14:35:05;94843.44;;;6.87;76.86
35892;BME280;21993;42.672;23.296;2022-11-30T14:37:38;94860.56;;;6.78;76.98
35892;BME280;21993;42.672;23.296;2022-11-30T14:40:05;94860.47;;;6.80;77.04
35892;BME280;21993;42.672;23.296;2022-11-30T14:42:32;94847.59;;;6.53;77.63
35892;BME280;21993;42.672;23.296;2022-11-30T14:44:59;94862.53;;;6.51;77.55
35892;BME280;21993;42.672;23.296;2022-11-30T14:47:34;94871.06;;;6.53;77.90
35892;BME280;21993;42.672;23.296;2022-11-30T14:50:03;94866.69;;;6.66;77.51
35892;BME280;21993;42.672;23.296;2022-11-30T14:52:54;94870.47;;;6.86;77.45
35892;BME280;21993;42.672;23.296;2022-11-30T15:00:47;94882.31;;;6.66;78.08
35892;BME280;21993;42.672;23.296;2022-11-30T15:03:24;94884.72;;;6.69;78.07
35892;BME280;21993;42.672;23.296;2022-11-30T15:05:53;94885.22;;;6.74;77.96
35892;BME280;21993;42.672;23.296;2022-11-30T15:08:20;94888.50;;;6.65;78.06
35892;BME280;21993;42.672;23.296;2022-11-30T15:10:46;94880.47;;;6.92;77.75
35892;BME280;21993;42.672;23.296;2022-11-30T15:13:14;94888.34;;;6.79;78.22
35892;BME280;21993;42.672;23.296;2022-11-30T15:15:52;94891.63;;;6.57;78.73